sensor_id;sensor_type;location;lat;lon;timestamp;temperature;humidity
15095;DHT22;7648;52.264;9.632;2022-12-13T00:03:07;-5.70;99.90
15095;DHT22;7648;52.264;9.632;2022-12-13T00:07:12;-5.70;99.90
15095;DHT22;7648;52.264;9.632;2022-12-13T00:11:14;-5.70;99.90
15095;DHT22;7648;52.264;9.632;2022-12-13T00:15:16;-5.70;99.90
15095;DHT22;7648;52.264;9.632;2022-12-13T00:19:18;-5.70;99.90
15095;DHT22;7648;52.264;9.632;2022-12-13T00:23:22;-5.70;99.90
15095;DHT22;7648;52.264;9.632;2022-12-13T00:27:24;-5.70;99.90
15095;DHT22;7648;52.264;9.632;2022-12-13T00:31:27;-5.70;99.90
15095;DHT22;7648;52.264;9.632;2022-12-13T00:35:31;-5.80;99.90
15095;DHT22;7648;52.264;9.632;2022-12-13T00:39:34;-5.80;99.90
15095;DHT22;7648;52.264;9.632;2022-12-13T00:43:36;-5.90;99.90
15095;DHT22;7648;52.264;9.632;2022-12-13T00:47:38;-5.90;99.90
15095;DHT22;7648;52.264;9.632;2022-12-13T00:51:40;-5.90;99.90
15095;DHT22;7648;52.264;9.632;2022-12-13T00:55:43;-5.90;99.90
15095;DHT22;7648;52.264;9.632;2022-12-13T00:59:46;-5.90;99.90
15095;DHT22;7648;52.264;9.632;2022-12-13T01:03:50;-5.90;99.90
15095;DHT22;7648;52.264;9.632;2022-12-13T01:07:52;-5.80;99.90
15095;DHT22;7648;52.264;9.632;2022-12-13T01:11:57;-5.90;99.90
15095;DHT22;7648;52.264;9.632;2022-12-13T01:16:01;-5.90;99.90
15095;DHT22;7648;52.264;9.632;2022-12-13T01:20:04;-5.80;99.90
15095;DHT22;7648;52.264;9.632;2022-12-13T01:24:07;-5.80;99.90
15095;DHT22;7648;52.264;9.632;2022-12-13T01:28:11;-5.90;99.90
15095;DHT22;7648;52.264;9.632;2022-12-13T01:32:13;-5.90;99.90
15095;DHT22;7648;52.264;9.632;2022-12-13T01:36:17;-5.90;99.90
15095;DHT22;7648;52.264;9.632;2022-12-13T01:40:19;-5.80;99.90
15095;DHT22;7648;52.264;9.632;2022-12-13T01:44:58;-5.90;99.90
15095;DHT22;7648;52.264;9.632;2022-12-13T01:49:04;-6.00;99.90
15095;DHT22;7648;52.264;9.632;2022-12-13T01:53:08;-6.00;99.90
15095;DHT22;7648;52.264;9.632;2022-12-13T01:57:14;-6.00;99.90
15095;DHT22;7648;52.264;9.632;2022-12-13T02:01:19;-6.00;99.90
15095;DHT22;7648;52.264;9.632;2022-12-13T02:05:26;-6.00;99.90
15095;DHT22;7648;52.264;9.632;2022-12-13T02:09:29;-6.00;99.90
15095;DHT22;7648;52.264;9.632;2022-12-13T02:13:32;-6.10;99.90
15095;DHT22;7648;52.264;9.632;2022-12-13T02:17:57;-6.10;99.90
15095;DHT22;7648;52.264;9.632;2022-12-13T02:22:10;-6.20;99.90
15095;DHT22;7648;52.264;9.632;2022-12-13T02:26:49;-6.10;99.90
15095;DHT22;7648;52.264;9.632;2022-12-13T02:30:59;-6.20;99.90
15095;DHT22;7648;52.264;9.632;2022-12-13T02:35:06;-6.10;99.90
15095;DHT22;7648;52.264;9.632;2022-12-13T02:39:15;-6.20;99.90
15095;DHT22;7648;52.264;9.632;2022-12-13T02:43:21;-6.20;99.90
15095;DHT22;7648;52.264;9.632;2022-12-13T02:47:27;-6.20;99.90
15095;DHT22;7648;52.264;9.632;2022-12-13T02:51:30;-6.30;99.90
15095;DHT22;7648;52.264;9.632;2022-12-13T02:55:33;-6.30;99.90
15095;DHT22;7648;52.264;9.632;2022-12-13T02:59:37;-6.40;99.90
15095;DHT22;7648;52.264;9.632;2022-12-13T03:03:46;-6.30;99.90
15095;DHT22;7648;52.264;9.632;2022-12-13T03:08:01;-6.40;99.90
15095;DHT22;7648;52.264;9.632;2022-12-13T03:12:20;-6.30;99.90
15095;DHT22;7648;52.264;9.632;2022-12-13T03:16:43;-6.30;99.90
15095;DHT22;7648;52.264;9.632;2022-12-13T03:20:49;-6.30;99.90
15095;DHT22;7648;52.264;9.632;2022-12-13T03:24:51;-6.40;99.90
15095;DHT22;7648;52.264;9.632;2022-12-13T03:28:54;-6.60;99.90
15095;DHT22;7648;52.264;9.632;2022-12-13T03:32:56;-6.70;99.90
15095;DHT22;7648;52.264;9.632;2022-12-13T03:36:59;-6.60;99.90
15095;DHT22;7648;52.264;9.632;2022-12-13T03:41:04;-6.60;99.90
15095;DHT22;7648;52.264;9.632;2022-12-13T03:45:07;-6.60;99.90
15095;DHT22;7648;52.264;9.632;2022-12-13T03:49:10;-6.50;99.90
15095;DHT22;7648;52.264;9.632;2022-12-13T03:53:14;-6.50;99.90
15095;DHT22;7648;52.264;9.632;2022-12-13T03:57:16;-6.50;99.90
15095;DHT22;7648;52.264;9.632;2022-12-13T04:01:18;-6.40;99.90
15095;DHT22;7648;52.264;9.632;2022-12-13T04:05:20;-6.50;99.90
15095;DHT22;7648;52.264;9.632;2022-12-13T04:09:23;-6.50;99.90
15095;DHT22;7648;52.264;9.632;2022-12-13T04:13:25;-6.50;99.90
15095;DHT22;7648;52.264;9.632;2022-12-13T04:17:33;-6.50;99.90
15095;DHT22;7648;52.264;9.632;2022-12-13T04:21:35;-6.50;99.90
15095;DHT22;7648;52.264;9.632;2022-12-13T04:25:39;-6.50;99.90
15095;DHT22;7648;52.264;9.632;2022-12-13T04:29:41;-6.50;99.90
15095;DHT22;7648;52.264;9.632;2022-12-13T04:33:44;-6.50;99.90
15095;DHT22;7648;52.264;9.632;2022-12-13T04:37:46;-6.60;99.90
15095;DHT22;7648;52.264;9.632;2022-12-13T04:41:51;-6.60;99.90
15095;DHT22;7648;52.264;9.632;2022-12-13T04:45:53;-6.70;99.90
15095;DHT22;7648;52.264;9.632;2022-12-13T04:49:55;-6.80;99.90
15095;DHT22;7648;52.264;9.632;2022-12-13T04:53:57;-6.70;99.90
15095;DHT22;7648;52.264;9.632;2022-12-13T04:58:01;-6.70;99.90
15095;DHT22;7648;52.264;9.632;2022-12-13T05:02:04;-6.70;99.90
15095;DHT22;7648;52.264;9.632;2022-12-13T05:06:08;-6.60;99.90
15095;DHT22;7648;52.264;9.632;2022-12-13T05:10:10;-6.60;99.90
15095;DHT22;7648;52.264;9.632;2022-12-13T05:14:14;-6.60;99.90
15095;DHT22;7648;52.264;9.632;2022-12-13T05:18:16;-6.70;99.90
15095;DHT22;7648;52.264;9.632;2022-12-13T05:22:18;-6.70;99.90
15095;DHT22;7648;52.264;9.632;2022-12-13T05:26:20;-6.80;99.90
15095;DHT22;7648;52.264;9.632;2022-12-13T05:30:23;-6.80;99.90
15095;DHT22;7648;52.264;9.632;2022-12-13T05:34:25;-6.80;99.90
15095;DHT22;7648;52.264;9.632;2022-12-13T05:38:27;-6.70;99.90
15095;DHT22;7648;52.264;9.632;2022-12-13T05:42:30;-6.70;99.90
15095;DHT22;7648;52.264;9.632;2022-12-13T05:46:33;-6.70;99.90
15095;DHT22;7648;52.264;9.632;2022-12-13T05:50:35;-6.60;99.90
15095;DHT22;7648;52.264;9.632;2022-12-13T05:54:37;-6.50;99.90
15095;DHT22;7648;52.264;9.632;2022-12-13T05:58:40;-6.50;99.90
15095;DHT22;7648;52.264;9.632;2022-12-13T06:02:43;-6.40;99.90
15095;DHT22;7648;52.264;9.632;2022-12-13T06:06:45;-6.30;99.90
15095;DHT22;7648;52.264;9.632;2022-12-13T06:10:53;-6.30;99.90
15095;DHT22;7648;52.264;9.632;2022-12-13T06:14:55;-6.30;99.90
15095;DHT22;7648;52.264;9.632;2022-12-13T06:18:58;-6.20;99.90
15095;DHT22;7648;52.264;9.632;2022-12-13T06:23:00;-6.20;99.90
15095;DHT22;7648;52.264;9.632;2022-12-13T06:27:03;-6.20;99.90
15095;DHT22;7648;52.264;9.632;2022-12-13T06:31:05;-6.30;99.90
15095;DHT22;7648;52.264;9.632;2022-12-13T06:35:08;-6.30;99.90
15095;DHT22;7648;52.264;9.632;2022-12-13T06:39:10;-6.20;99.90
15095;DHT22;7648;52.264;9.632;2022-12-13T06:43:13;-6.30;99.90
15095;DHT22;7648;52.264;9.632;2022-12-13T06:47:15;-6.30;99.90
15095;DHT22;7648;52.264;9.632;2022-12-13T06:51:18;-6.40;99.90
15095;DHT22;7648;52.264;9.632;2022-12-13T06:55:20;-6.40;99.90
15095;DHT22;7648;52.264;9.632;2022-12-13T06:59:22;-6.40;99.90
15095;DHT22;7648;52.264;9.632;2022-12-13T07:03:24;-6.30;99.90
15095;DHT22;7648;52.264;9.632;2022-12-13T07:07:27;-6.30;99.90
15095;DHT22;7648;52.264;9.632;2022-12-13T07:11:31;-6.40;99.90
15095;DHT22;7648;52.264;9.632;2022-12-13T07:15:34;-6.40;99.90
15095;DHT22;7648;52.264;9.632;2022-12-13T07:19:37;-6.30;99.90
15095;DHT22;7648;52.264;9.632;2022-12-13T07:23:41;-6.40;99.90
15095;DHT22;7648;52.264;9.632;2022-12-13T07:27:43;-6.40;99.90
15095;DHT22;7648;52.264;9.632;2022-12-13T07:31:45;-6.40;99.90
15095;DHT22;7648;52.264;9.632;2022-12-13T07:35:47;-6.50;99.90
15095;DHT22;7648;52.264;9.632;2022-12-13T07:39:50;-6.50;99.90
15095;DHT22;7648;52.264;9.632;2022-12-13T07:43:53;-6.40;99.90
15095;DHT22;7648;52.264;9.632;2022-12-13T07:47:55;-6.30;99.90
15095;DHT22;7648;52.264;9.632;2022-12-13T07:51:57;-6.40;99.90
15095;DHT22;7648;52.264;9.632;2022-12-13T07:56:01;-6.30;99.90
15095;DHT22;7648;52.264;9.632;2022-12-13T08:00:04;-6.30;99.90
15095;DHT22;7648;52.264;9.632;2022-12-13T08:04:13;-6.30;99.90
15095;DHT22;7648;52.264;9.632;2022-12-13T08:08:15;-6.30;99.90
15095;DHT22;7648;52.264;9.632;2022-12-13T08:12:18;-6.30;99.90
15095;DHT22;7648;52.264;9.632;2022-12-13T08:16:20;-6.20;99.90
15095;DHT22;7648;52.264;9.632;2022-12-13T08:20:22;-6.20;99.90
15095;DHT22;7648;52.264;9.632;2022-12-13T08:24:26;-6.20;99.90
15095;DHT22;7648;52.264;9.632;2022-12-13T08:28:30;-6.10;99.90
15095;DHT22;7648;52.264;9.632;2022-12-13T08:32:32;-6.10;99.90
15095;DHT22;7648;52.264;9.632;2022-12-13T08:36:35;-6.00;99.90
15095;DHT22;7648;52.264;9.632;2022-12-13T08:40:37;-5.90;99.90
15095;DHT22;7648;52.264;9.632;2022-12-13T08:44:41;-5.80;99.90
15095;DHT22;7648;52.264;9.632;2022-12-13T08:48:43;-5.80;99.90
15095;DHT22;7648;52.264;9.632;2022-12-13T08:52:45;-5.70;99.90
15095;DHT22;7648;52.264;9.632;2022-12-13T08:56:47;-5.70;99.90
15095;DHT22;7648;52.264;9.632;2022-12-13T09:00:50;-5.70;99.90
15095;DHT22;7648;52.264;9.632;2022-12-13T09:04:52;-5.50;99.90
15095;DHT22;7648;52.264;9.632;2022-12-13T09:08:54;-5.50;99.90
15095;DHT22;7648;52.264;9.632;2022-12-13T09:12:56;-5.40;99.90
15095;DHT22;7648;52.264;9.632;2022-12-13T09:17:01;-5.40;99.90
15095;DHT22;7648;52.264;9.632;2022-12-13T09:21:07;-5.30;99.90
15095;DHT22;7648;52.264;9.632;2022-12-13T09:25:09;-5.20;99.90
15095;DHT22;7648;52.264;9.632;2022-12-13T09:29:11;-5.10;99.90
15095;DHT22;7648;52.264;9.632;2022-12-13T09:33:17;-5.00;99.90
15095;DHT22;7648;52.264;9.632;2022-12-13T09:37:19;-5.00;99.90
15095;DHT22;7648;52.264;9.632;2022-12-13T09:41:24;-4.90;99.90
15095;DHT22;7648;52.264;9.632;2022-12-13T09:45:29;-4.80;99.90
15095;DHT22;7648;52.264;9.632;2022-12-13T09:49:37;-4.70;99.90
15095;DHT22;7648;52.264;9.632;2022-12-13T09:53:49;-4.70;99.90
15095;DHT22;7648;52.264;9.632;2022-12-13T09:57:51;-4.60;99.90
15095;DHT22;7648;52.264;9.632;2022-12-13T10:01:54;-4.50;99.90
15095;DHT22;7648;52.264;9.632;2022-12-13T10:05:59;-4.40;99.90
15095;DHT22;7648;52.264;9.632;2022-12-13T10:10:02;-4.30;99.90
15095;DHT22;7648;52.264;9.632;2022-12-13T10:14:08;-4.20;99.90
15095;DHT22;7648;52.264;9.632;2022-12-13T10:18:14;-4.00;99.90
15095;DHT22;7648;52.264;9.632;2022-12-13T10:22:21;-3.80;99.90
15095;DHT22;7648;52.264;9.632;2022-12-13T10:26:24;-3.50;99.90
15095;DHT22;7648;52.264;9.632;2022-12-13T10:30:26;-3.40;99.90
15095;DHT22;7648;52.264;9.632;2022-12-13T10:34:33;-3.20;99.90
15095;DHT22;7648;52.264;9.632;2022-12-13T10:38:39;-3.00;99.90
15095;DHT22;7648;52.264;9.632;2022-12-13T10:42:42;-2.90;99.90
15095;DHT22;7648;52.264;9.632;2022-12-13T10:47:00;-2.80;99.90
15095;DHT22;7648;52.264;9.632;2022-12-13T10:51:04;-2.70;99.90
15095;DHT22;7648;52.264;9.632;2022-12-13T10:55:26;-2.60;99.90
15095;DHT22;7648;52.264;9.632;2022-12-13T10:59:32;-2.50;99.90
15095;DHT22;7648;52.264;9.632;2022-12-13T11:03:35;-2.40;99.90
15095;DHT22;7648;52.264;9.632;2022-12-13T11:07:37;-2.30;99.90
15095;DHT22;7648;52.264;9.632;2022-12-13T11:11:44;-2.20;99.90
15095;DHT22;7648;52.264;9.632;2022-12-13T11:15:53;-2.20;99.90
15095;DHT22;7648;52.264;9.632;2022-12-13T11:19:57;-2.10;99.90
15095;DHT22;7648;52.264;9.632;2022-12-13T11:24:02;-2.10;99.90
15095;DHT22;7648;52.264;9.632;2022-12-13T11:28:19;-2.00;99.90
15095;DHT22;7648;52.264;9.632;2022-12-13T11:32:34;-1.90;99.90
15095;DHT22;7648;52.264;9.632;2022-12-13T11:36:43;-1.90;99.90
15095;DHT22;7648;52.264;9.632;2022-12-13T11:40:50;-1.80;99.90
15095;DHT22;7648;52.264;9.632;2022-12-13T11:45:00;-1.80;99.90
15095;DHT22;7648;52.264;9.632;2022-12-13T11:49:08;-1.70;99.90
15095;DHT22;7648;52.264;9.632;2022-12-13T11:53:22;-1.50;99.90
15095;DHT22;7648;52.264;9.632;2022-12-13T11:57:37;-1.50;99.90
15095;DHT22;7648;52.264;9.632;2022-12-13T12:01:45;-1.40;99.90
15095;DHT22;7648;52.264;9.632;2022-12-13T12:05:50;-1.40;99.90
15095;DHT22;7648;52.264;9.632;2022-12-13T12:09:57;-1.30;99.90
15095;DHT22;7648;52.264;9.632;2022-12-13T12:14:02;-1.20;99.90
15095;DHT22;7648;52.264;9.632;2022-12-13T12:18:12;-1.20;99.90
15095;DHT22;7648;52.264;9.632;2022-12-13T12:22:25;-1.10;99.90
15095;DHT22;7648;52.264;9.632;2022-12-13T12:26:34;-1.10;99.90
15095;DHT22;7648;52.264;9.632;2022-12-13T12:30:44;-1.10;99.90
15095;DHT22;7648;52.264;9.632;2022-12-13T12:34:56;-1.00;99.90
15095;DHT22;7648;52.264;9.632;2022-12-13T12:43:40;-1.00;99.90
15095;DHT22;7648;52.264;9.632;2022-12-13T12:47:48;-1.00;99.90
15095;DHT22;7648;52.264;9.632;2022-12-13T12:52:03;-0.90;99.90
15095;DHT22;7648;52.264;9.632;2022-12-13T12:56:19;-0.90;99.90
15095;DHT22;7648;52.264;9.632;2022-12-13T13:00:25;-0.80;99.90
15095;DHT22;7648;52.264;9.632;2022-12-13T13:04:34;-0.80;99.90
15095;DHT22;7648;52.264;9.632;2022-12-13T13:08:44;-0.70;99.90
15095;DHT22;7648;52.264;9.632;2022-12-13T13:12:47;-0.70;99.90
15095;DHT22;7648;52.264;9.632;2022-12-13T13:16:49;-0.70;99.90
15095;DHT22;7648;52.264;9.632;2022-12-13T13:25:30;-0.70;99.90
15095;DHT22;7648;52.264;9.632;2022-12-13T13:29:34;-0.70;99.90
15095;DHT22;7648;52.264;9.632;2022-12-13T13:33:43;-0.70;99.90
15095;DHT22;7648;52.264;9.632;2022-12-13T13:37:47;-0.80;99.90
15095;DHT22;7648;52.264;9.632;2022-12-13T13:42:13;-0.80;99.90
15095;DHT22;7648;52.264;9.632;2022-12-13T13:46:16;-0.80;99.90
15095;DHT22;7648;52.264;9.632;2022-12-13T13:50:36;-0.90;99.90
15095;DHT22;7648;52.264;9.632;2022-12-13T13:55:05;-0.90;99.90
15095;DHT22;7648;52.264;9.632;2022-12-13T14:04:20;-1.00;99.90
15095;DHT22;7648;52.264;9.632;2022-12-13T14:08:36;-1.00;99.90
15095;DHT22;7648;52.264;9.632;2022-12-13T14:13:09;-1.10;99.90
15095;DHT22;7648;52.264;9.632;2022-12-13T14:18:06;-1.20;99.90
15095;DHT22;7648;52.264;9.632;2022-12-13T14:22:22;-1.20;99.90
15095;DHT22;7648;52.264;9.632;2022-12-13T14:26:49;-1.30;99.90
15095;DHT22;7648;52.264;9.632;2022-12-13T14:30:52;-1.30;99.90
15095;DHT22;7648;52.264;9.632;2022-12-13T14:34:55;-1.40;99.90
15095;DHT22;7648;52.264;9.632;2022-12-13T14:39:04;-1.50;99.90
15095;DHT22;7648;52.264;9.632;2022-12-13T14:43:21;-1.60;99.90
15095;DHT22;7648;52.264;9.632;2022-12-13T14:47:23;-1.70;99.90
15095;DHT22;7648;52.264;9.632;2022-12-13T14:51:31;-1.80;99.90
15095;DHT22;7648;52.264;9.632;2022-12-13T14:55:36;-1.90;99.90
15095;DHT22;7648;52.264;9.632;2022-12-13T14:59:44;-2.00;99.90
15095;DHT22;7648;52.264;9.632;2022-12-13T15:03:46;-2.00;99.90
15095;DHT22;7648;52.264;9.632;2022-12-13T15:07:48;-2.10;99.90
15095;DHT22;7648;52.264;9.632;2022-12-13T15:11:52;-2.20;99.90
15095;DHT22;7648;52.264;9.632;2022-12-13T15:15:57;-2.20;99.90
15095;DHT22;7648;52.264;9.632;2022-12-13T15:20:09;-2.30;99.90
15095;DHT22;7648;52.264;9.632;2022-12-13T15:24:25;-2.40;99.90
15095;DHT22;7648;52.264;9.632;2022-12-13T15:28:34;-2.40;99.90
15095;DHT22;7648;52.264;9.632;2022-12-13T15:33:04;-2.50;99.90
15095;DHT22;7648;52.264;9.632;2022-12-13T15:37:16;-2.50;99.90
15095;DHT22;7648;52.264;9.632;2022-12-13T15:41:20;-2.60;99.90
15095;DHT22;7648;52.264;9.632;2022-12-13T15:45:25;-2.60;99.90
15095;DHT22;7648;52.264;9.632;2022-12-13T15:49:31;-2.70;99.90
15095;DHT22;7648;52.264;9.632;2022-12-13T15:53:34;-2.70;99.90
15095;DHT22;7648;52.264;9.632;2022-12-13T15:57:49;-2.80;99.90
15095;DHT22;7648;52.264;9.632;2022-12-13T16:01:52;-2.80;99.90
15095;DHT22;7648;52.264;9.632;2022-12-13T16:05:55;-2.90;99.90
15095;DHT22;7648;52.264;9.632;2022-12-13T16:09:58;-3.00;99.90
15095;DHT22;7648;52.264;9.632;2022-12-13T16:14:26;-3.10;99.90
15095;DHT22;7648;52.264;9.632;2022-12-13T16:18:31;-3.10;99.90
15095;DHT22;7648;52.264;9.632;2022-12-13T16:22:33;-3.20;99.90
15095;DHT22;7648;52.264;9.632;2022-12-13T16:26:35;-3.30;99.90
15095;DHT22;7648;52.264;9.632;2022-12-13T16:31:08;-3.40;99.90
15095;DHT22;7648;52.264;9.632;2022-12-13T16:35:14;-3.40;99.90
15095;DHT22;7648;52.264;9.632;2022-12-13T16:39:16;-3.40;99.90
15095;DHT22;7648;52.264;9.632;2022-12-13T16:43:20;-3.40;99.90
15095;DHT22;7648;52.264;9.632;2022-12-13T16:47:23;-3.40;99.90
15095;DHT22;7648;52.264;9.632;2022-12-13T16:51:30;-3.40;99.90
15095;DHT22;7648;52.264;9.632;2022-12-13T16:55:32;-3.50;99.90
15095;DHT22;7648;52.264;9.632;2022-12-13T16:59:34;-3.50;99.90
15095;DHT22;7648;52.264;9.632;2022-12-13T17:03:36;-3.60;99.90
15095;DHT22;7648;52.264;9.632;2022-12-13T17:07:39;-3.60;99.90
15095;DHT22;7648;52.264;9.632;2022-12-13T17:11:41;-3.60;99.90
15095;DHT22;7648;52.264;9.632;2022-12-13T17:15:43;-3.60;99.90
15095;DHT22;7648;52.264;9.632;2022-12-13T17:19:45;-3.60;99.90
15095;DHT22;7648;52.264;9.632;2022-12-13T17:23:52;-3.70;99.90
15095;DHT22;7648;52.264;9.632;2022-12-13T17:27:54;-3.70;99.90
15095;DHT22;7648;52.264;9.632;2022-12-13T17:31:57;-3.70;99.90
15095;DHT22;7648;52.264;9.632;2022-12-13T17:36:01;-3.70;99.90
15095;DHT22;7648;52.264;9.632;2022-12-13T17:40:05;-3.70;99.90
15095;DHT22;7648;52.264;9.632;2022-12-13T17:44:09;-3.60;99.90
15095;DHT22;7648;52.264;9.632;2022-12-13T17:48:11;-3.70;99.90
15095;DHT22;7648;52.264;9.632;2022-12-13T17:52:13;-3.70;99.90
15095;DHT22;7648;52.264;9.632;2022-12-13T17:56:16;-3.70;99.90
15095;DHT22;7648;52.264;9.632;2022-12-13T18:00:19;-3.70;99.90
15095;DHT22;7648;52.264;9.632;2022-12-13T18:04:22;-3.70;99.90
15095;DHT22;7648;52.264;9.632;2022-12-13T18:08:24;-3.80;99.90
15095;DHT22;7648;52.264;9.632;2022-12-13T18:12:28;-3.80;99.90
15095;DHT22;7648;52.264;9.632;2022-12-13T18:16:30;-3.80;99.90
15095;DHT22;7648;52.264;9.632;2022-12-13T18:20:34;-3.80;99.90
15095;DHT22;7648;52.264;9.632;2022-12-13T18:24:36;-3.80;99.90
15095;DHT22;7648;52.264;9.632;2022-12-13T18:28:40;-3.80;99.90
15095;DHT22;7648;52.264;9.632;2022-12-13T18:32:42;-3.80;99.90
15095;DHT22;7648;52.264;9.632;2022-12-13T18:36:44;-3.90;99.90
15095;DHT22;7648;52.264;9.632;2022-12-13T18:40:46;-3.80;99.90
15095;DHT22;7648;52.264;9.632;2022-12-13T18:44:50;-3.90;99.90
15095;DHT22;7648;52.264;9.632;2022-12-13T18:48:52;-3.90;99.90
15095;DHT22;7648;52.264;9.632;2022-12-13T18:52:54;-3.80;99.90
15095;DHT22;7648;52.264;9.632;2022-12-13T18:56:56;-3.90;99.90
15095;DHT22;7648;52.264;9.632;2022-12-13T19:01:00;-4.00;99.90
15095;DHT22;7648;52.264;9.632;2022-12-13T19:05:02;-4.00;99.90
15095;DHT22;7648;52.264;9.632;2022-12-13T19:09:04;-4.00;99.90
15095;DHT22;7648;52.264;9.632;2022-12-13T19:13:06;-4.10;99.90
15095;DHT22;7648;52.264;9.632;2022-12-13T19:17:10;-4.10;99.90
15095;DHT22;7648;52.264;9.632;2022-12-13T19:21:13;-4.10;99.90
15095;DHT22;7648;52.264;9.632;2022-12-13T19:25:16;-4.10;99.90
15095;DHT22;7648;52.264;9.632;2022-12-13T19:29:20;-4.10;99.90
15095;DHT22;7648;52.264;9.632;2022-12-13T19:33:23;-4.00;99.90
15095;DHT22;7648;52.264;9.632;2022-12-13T19:37:26;-4.00;99.90
15095;DHT22;7648;52.264;9.632;2022-12-13T19:41:28;-4.00;99.90
15095;DHT22;7648;52.264;9.632;2022-12-13T19:45:31;-3.90;99.90
15095;DHT22;7648;52.264;9.632;2022-12-13T19:49:35;-3.90;99.90
15095;DHT22;7648;52.264;9.632;2022-12-13T19:53:37;-3.90;99.90
15095;DHT22;7648;52.264;9.632;2022-12-13T19:57:39;-3.80;99.90
15095;DHT22;7648;52.264;9.632;2022-12-13T20:01:41;-3.80;99.90
15095;DHT22;7648;52.264;9.632;2022-12-13T20:05:55;-3.80;99.90
15095;DHT22;7648;52.264;9.632;2022-12-13T20:09:57;-3.70;99.90
15095;DHT22;7648;52.264;9.632;2022-12-13T20:13:59;-3.70;99.90
15095;DHT22;7648;52.264;9.632;2022-12-13T20:18:01;-3.70;99.90
15095;DHT22;7648;52.264;9.632;2022-12-13T20:22:05;-3.70;99.90
15095;DHT22;7648;52.264;9.632;2022-12-13T20:26:09;-3.70;99.90
15095;DHT22;7648;52.264;9.632;2022-12-13T20:30:12;-3.70;99.90
15095;DHT22;7648;52.264;9.632;2022-12-13T20:34:15;-3.70;99.90
15095;DHT22;7648;52.264;9.632;2022-12-13T20:38:19;-3.70;99.90
15095;DHT22;7648;52.264;9.632;2022-12-13T20:42:22;-3.70;99.90
15095;DHT22;7648;52.264;9.632;2022-12-13T20:46:25;-3.70;99.90
15095;DHT22;7648;52.264;9.632;2022-12-13T20:50:27;-3.60;99.90
15095;DHT22;7648;52.264;9.632;2022-12-13T20:54:31;-3.60;99.90
15095;DHT22;7648;52.264;9.632;2022-12-13T20:58:33;-3.60;99.90
15095;DHT22;7648;52.264;9.632;2022-12-13T21:02:37;-3.60;99.90
15095;DHT22;7648;52.264;9.632;2022-12-13T21:06:40;-3.60;99.90
15095;DHT22;7648;52.264;9.632;2022-12-13T21:10:43;-3.60;99.90
15095;DHT22;7648;52.264;9.632;2022-12-13T21:14:45;-3.60;99.90
15095;DHT22;7648;52.264;9.632;2022-12-13T21:18:47;-3.60;99.90
15095;DHT22;7648;52.264;9.632;2022-12-13T21:22:50;-3.70;99.90
15095;DHT22;7648;52.264;9.632;2022-12-13T21:26:53;-3.70;99.90
15095;DHT22;7648;52.264;9.632;2022-12-13T21:30:57;-3.70;99.90
15095;DHT22;7648;52.264;9.632;2022-12-13T21:34:59;-3.70;99.90
15095;DHT22;7648;52.264;9.632;2022-12-13T21:39:03;-3.80;99.90
15095;DHT22;7648;52.264;9.632;2022-12-13T21:43:07;-3.80;99.90
15095;DHT22;7648;52.264;9.632;2022-12-13T21:47:09;-3.80;99.90
15095;DHT22;7648;52.264;9.632;2022-12-13T21:51:13;-3.80;99.90
15095;DHT22;7648;52.264;9.632;2022-12-13T21:55:15;-3.80;99.90
15095;DHT22;7648;52.264;9.632;2022-12-13T21:59:20;-3.90;99.90
15095;DHT22;7648;52.264;9.632;2022-12-13T22:03:24;-3.90;99.90
15095;DHT22;7648;52.264;9.632;2022-12-13T22:07:28;-3.90;99.90
15095;DHT22;7648;52.264;9.632;2022-12-13T22:11:30;-3.90;99.90
15095;DHT22;7648;52.264;9.632;2022-12-13T22:15:34;-3.90;99.90
15095;DHT22;7648;52.264;9.632;2022-12-13T22:19:36;-3.90;99.90
15095;DHT22;7648;52.264;9.632;2022-12-13T22:23:39;-3.90;99.90
15095;DHT22;7648;52.264;9.632;2022-12-13T22:27:41;-3.90;99.90
15095;DHT22;7648;52.264;9.632;2022-12-13T22:31:45;-3.80;99.90
15095;DHT22;7648;52.264;9.632;2022-12-13T22:35:46;-3.80;99.90
15095;DHT22;7648;52.264;9.632;2022-12-13T22:39:49;-3.80;99.90
15095;DHT22;7648;52.264;9.632;2022-12-13T22:43:52;-3.80;99.90
15095;DHT22;7648;52.264;9.632;2022-12-13T22:47:56;-3.70;99.90
15095;DHT22;7648;52.264;9.632;2022-12-13T22:51:57;-3.70;99.90
15095;DHT22;7648;52.264;9.632;2022-12-13T22:56:04;-3.70;99.90
15095;DHT22;7648;52.264;9.632;2022-12-13T23:00:09;-3.70;99.90
15095;DHT22;7648;52.264;9.632;2022-12-13T23:04:12;-3.70;99.90
15095;DHT22;7648;52.264;9.632;2022-12-13T23:08:14;-3.60;99.90
15095;DHT22;7648;52.264;9.632;2022-12-13T23:12:16;-3.60;99.90
15095;DHT22;7648;52.264;9.632;2022-12-13T23:16:36;-3.60;99.90
15095;DHT22;7648;52.264;9.632;2022-12-13T23:20:40;-3.60;99.90
15095;DHT22;7648;52.264;9.632;2022-12-13T23:24:42;-3.60;99.90
15095;DHT22;7648;52.264;9.632;2022-12-13T23:28:45;-3.60;99.90
15095;DHT22;7648;52.264;9.632;2022-12-13T23:32:47;-3.60;99.90
15095;DHT22;7648;52.264;9.632;2022-12-13T23:36:51;-3.60;99.90
15095;DHT22;7648;52.264;9.632;2022-12-13T23:41:00;-3.60;99.90
15095;DHT22;7648;52.264;9.632;2022-12-13T23:45:02;-3.60;99.90
15095;DHT22;7648;52.264;9.632;2022-12-13T23:49:05;-3.60;99.90
15095;DHT22;7648;52.264;9.632;2022-12-13T23:53:08;-3.60;99.90
15095;DHT22;7648;52.264;9.632;2022-12-13T23:57:10;-3.60;99.90
